sensor_id;sensor_type;location;lat;lon;timestamp;pressure;altitude;pressure_sealevel;temperature;humidity
49645;BME280;36494;50.730;-1.932;2023-08-31T00:01:19;100540.66;;;14.62;100.00
49645;BME280;36494;50.730;-1.932;2023-08-31T00:03:44;100543.76;;;14.63;100.00
49645;BME280;36494;50.730;-1.932;2023-08-31T00:06:09;100543.48;;;14.62;100.00
49645;BME280;36494;50.730;-1.932;2023-08-31T00:08:35;100542.76;;;14.64;100.00
49645;BME280;36494;50.730;-1.932;2023-08-31T00:11:00;100534.11;;;14.62;100.00
49645;BME280;36494;50.730;-1.932;2023-08-31T00:13:26;100527.92;;;14.59;100.00
49645;BME280;36494;50.730;-1.932;2023-08-31T00:15:51;100527.51;;;14.60;100.00
49645;BME280;36494;50.730;-1.932;2023-08-31T00:18:16;100527.92;;;14.61;100.00
49645;BME280;36494;50.730;-1.932;2023-08-31T00:20:42;100525.72;;;14.62;100.00
49645;BME280;36494;50.730;-1.932;2023-08-31T00:23:07;100524.76;;;14.62;100.00
49645;BME280;36494;50.730;-1.932;2023-08-31T00:25:32;100526.80;;;14.62;100.00
49645;BME280;36494;50.730;-1.932;2023-08-31T00:27:57;100526.36;;;14.62;100.00
49645;BME280;36494;50.730;-1.932;2023-08-31T00:30:23;100522.85;;;14.62;100.00
49645;BME280;36494;50.730;-1.932;2023-08-31T00:32:50;100519.17;;;14.63;100.00
49645;BME280;36494;50.730;-1.932;2023-08-31T00:35:13;100521.49;;;14.64;100.00
49645;BME280;36494;50.730;-1.932;2023-08-31T00:37:39;100515.82;;;14.64;100.00
49645;BME280;36494;50.730;-1.932;2023-08-31T00:40:05;100511.43;;;14.65;100.00
49645;BME280;36494;50.730;-1.932;2023-08-31T00:42:30;100514.44;;;14.65;100.00
49645;BME280;36494;50.730;-1.932;2023-08-31T00:44:55;100520.44;;;14.65;100.00
49645;BME280;36494;50.730;-1.932;2023-08-31T00:47:20;100520.59;;;14.64;100.00
49645;BME280;36494;50.730;-1.932;2023-08-31T00:49:46;100524.57;;;14.65;100.00
49645;BME280;36494;50.730;-1.932;2023-08-31T00:52:11;100521.21;;;14.63;100.00
49645;BME280;36494;50.730;-1.932;2023-08-31T00:54:36;100520.59;;;14.61;100.00
49645;BME280;36494;50.730;-1.932;2023-08-31T00:57:03;100514.82;;;14.59;100.00
49645;BME280;36494;50.730;-1.932;2023-08-31T00:59:27;100511.27;;;14.57;100.00
49645;BME280;36494;50.730;-1.932;2023-08-31T01:02:01;100513.25;;;14.55;100.00
49645;BME280;36494;50.730;-1.932;2023-08-31T01:04:21;100509.71;;;14.54;100.00
49645;BME280;36494;50.730;-1.932;2023-08-31T01:06:53;100508.09;;;14.55;100.00
49645;BME280;36494;50.730;-1.932;2023-08-31T01:09:15;100505.90;;;14.53;100.00
49645;BME280;36494;50.730;-1.932;2023-08-31T01:11:44;100504.12;;;14.55;100.00
49645;BME280;36494;50.730;-1.932;2023-08-31T01:14:02;100504.94;;;14.56;100.00
49645;BME280;36494;50.730;-1.932;2023-08-31T01:16:26;100507.50;;;14.55;100.00
49645;BME280;36494;50.730;-1.932;2023-08-31T01:18:51;100505.73;;;14.55;100.00
49645;BME280;36494;50.730;-1.932;2023-08-31T01:21:25;100507.21;;;14.56;100.00
49645;BME280;36494;50.730;-1.932;2023-08-31T01:23:51;100505.76;;;14.55;100.00
49645;BME280;36494;50.730;-1.932;2023-08-31T01:26:06;100504.90;;;14.53;100.00
49645;BME280;36494;50.730;-1.932;2023-08-31T01:28:32;100504.78;;;14.53;100.00
49645;BME280;36494;50.730;-1.932;2023-08-31T01:30:57;100505.80;;;14.53;100.00
49645;BME280;36494;50.730;-1.932;2023-08-31T01:33:22;100506.39;;;14.54;100.00
49645;BME280;36494;50.730;-1.932;2023-08-31T01:35:50;100507.33;;;14.50;100.00
49645;BME280;36494;50.730;-1.932;2023-08-31T01:38:15;100508.31;;;14.48;100.00
49645;BME280;36494;50.730;-1.932;2023-08-31T01:40:44;100512.16;;;14.49;100.00
49645;BME280;36494;50.730;-1.932;2023-08-31T01:43:04;100510.11;;;14.49;100.00
49645;BME280;36494;50.730;-1.932;2023-08-31T01:45:30;100511.56;;;14.48;100.00
49645;BME280;36494;50.730;-1.932;2023-08-31T01:47:55;100506.06;;;14.47;100.00
49645;BME280;36494;50.730;-1.932;2023-08-31T01:50:20;100502.79;;;14.47;100.00
49645;BME280;36494;50.730;-1.932;2023-08-31T01:52:45;100499.80;;;14.47;100.00
49645;BME280;36494;50.730;-1.932;2023-08-31T01:55:10;100499.30;;;14.47;100.00
49645;BME280;36494;50.730;-1.932;2023-08-31T01:57:36;100493.50;;;14.47;100.00
49645;BME280;36494;50.730;-1.932;2023-08-31T02:00:01;100494.03;;;14.46;100.00
49645;BME280;36494;50.730;-1.932;2023-08-31T02:02:26;100490.26;;;14.45;100.00
49645;BME280;36494;50.730;-1.932;2023-08-31T02:04:52;100488.86;;;14.42;100.00
49645;BME280;36494;50.730;-1.932;2023-08-31T02:07:17;100489.14;;;14.41;100.00
49645;BME280;36494;50.730;-1.932;2023-08-31T02:09:42;100490.09;;;14.40;100.00
49645;BME280;36494;50.730;-1.932;2023-08-31T02:12:08;100493.30;;;14.37;100.00
49645;BME280;36494;50.730;-1.932;2023-08-31T02:14:33;100490.94;;;14.39;100.00
49645;BME280;36494;50.730;-1.932;2023-08-31T02:16:58;100491.97;;;14.39;100.00
49645;BME280;36494;50.730;-1.932;2023-08-31T02:19:23;100488.04;;;14.38;100.00
49645;BME280;36494;50.730;-1.932;2023-08-31T02:21:49;100486.08;;;14.39;100.00
49645;BME280;36494;50.730;-1.932;2023-08-31T02:24:14;100485.90;;;14.36;100.00
49645;BME280;36494;50.730;-1.932;2023-08-31T02:26:39;100485.77;;;14.34;100.00
49645;BME280;36494;50.730;-1.932;2023-08-31T02:29:05;100486.54;;;14.33;100.00
49645;BME280;36494;50.730;-1.932;2023-08-31T02:31:30;100482.56;;;14.32;100.00
49645;BME280;36494;50.730;-1.932;2023-08-31T02:33:56;100476.42;;;14.32;100.00
49645;BME280;36494;50.730;-1.932;2023-08-31T02:36:21;100474.28;;;14.33;100.00
49645;BME280;36494;50.730;-1.932;2023-08-31T02:38:46;100474.06;;;14.34;100.00
49645;BME280;36494;50.730;-1.932;2023-08-31T02:41:12;100468.98;;;14.33;100.00
49645;BME280;36494;50.730;-1.932;2023-08-31T02:43:38;100465.62;;;14.33;100.00
49645;BME280;36494;50.730;-1.932;2023-08-31T02:46:03;100464.03;;;14.34;100.00
49645;BME280;36494;50.730;-1.932;2023-08-31T02:48:28;100464.46;;;14.35;100.00
49645;BME280;36494;50.730;-1.932;2023-08-31T02:50:53;100461.97;;;14.35;100.00
49645;BME280;36494;50.730;-1.932;2023-08-31T02:53:18;100457.56;;;14.33;100.00
49645;BME280;36494;50.730;-1.932;2023-08-31T02:55:43;100458.11;;;14.28;100.00
49645;BME280;36494;50.730;-1.932;2023-08-31T02:58:09;100461.84;;;14.28;100.00
49645;BME280;36494;50.730;-1.932;2023-08-31T03:00:34;100460.91;;;14.30;100.00
49645;BME280;36494;50.730;-1.932;2023-08-31T03:02:59;100461.45;;;14.31;100.00
49645;BME280;36494;50.730;-1.932;2023-08-31T03:05:25;100458.86;;;14.31;100.00
49645;BME280;36494;50.730;-1.932;2023-08-31T03:07:50;100455.94;;;14.28;100.00
49645;BME280;36494;50.730;-1.932;2023-08-31T03:10:15;100451.07;;;14.29;100.00
49645;BME280;36494;50.730;-1.932;2023-08-31T03:12:41;100453.06;;;14.29;100.00
49645;BME280;36494;50.730;-1.932;2023-08-31T03:15:07;100452.06;;;14.25;100.00
49645;BME280;36494;50.730;-1.932;2023-08-31T03:17:31;100455.64;;;14.26;100.00
49645;BME280;36494;50.730;-1.932;2023-08-31T03:19:57;100458.11;;;14.25;100.00
49645;BME280;36494;50.730;-1.932;2023-08-31T03:22:22;100455.11;;;14.27;100.00
49645;BME280;36494;50.730;-1.932;2023-08-31T03:24:47;100444.74;;;14.27;100.00
49645;BME280;36494;50.730;-1.932;2023-08-31T03:27:13;100437.86;;;14.29;100.00
49645;BME280;36494;50.730;-1.932;2023-08-31T03:29:38;100435.54;;;14.29;100.00
49645;BME280;36494;50.730;-1.932;2023-08-31T03:32:04;100430.20;;;14.28;100.00
49645;BME280;36494;50.730;-1.932;2023-08-31T03:34:29;100431.55;;;14.25;100.00
49645;BME280;36494;50.730;-1.932;2023-08-31T03:36:54;100434.06;;;14.26;100.00
49645;BME280;36494;50.730;-1.932;2023-08-31T03:39:20;100432.58;;;14.26;100.00
49645;BME280;36494;50.730;-1.932;2023-08-31T03:41:45;100429.69;;;14.28;100.00
49645;BME280;36494;50.730;-1.932;2023-08-31T03:44:10;100431.69;;;14.29;100.00
49645;BME280;36494;50.730;-1.932;2023-08-31T03:46:36;100433.14;;;14.29;100.00
49645;BME280;36494;50.730;-1.932;2023-08-31T03:49:01;100433.24;;;14.29;100.00
49645;BME280;36494;50.730;-1.932;2023-08-31T03:51:26;100433.09;;;14.29;100.00
49645;BME280;36494;50.730;-1.932;2023-08-31T03:53:52;100432.43;;;14.29;100.00
49645;BME280;36494;50.730;-1.932;2023-08-31T03:56:17;100429.35;;;14.28;100.00
49645;BME280;36494;50.730;-1.932;2023-08-31T03:58:42;100428.25;;;14.29;100.00
49645;BME280;36494;50.730;-1.932;2023-08-31T04:01:07;100430.26;;;14.29;100.00
49645;BME280;36494;50.730;-1.932;2023-08-31T04:03:33;100429.58;;;14.30;100.00
49645;BME280;36494;50.730;-1.932;2023-08-31T04:05:58;100428.23;;;14.30;100.00
49645;BME280;36494;50.730;-1.932;2023-08-31T04:08:23;100430.53;;;14.29;100.00
49645;BME280;36494;50.730;-1.932;2023-08-31T04:10:49;100432.67;;;14.30;100.00
49645;BME280;36494;50.730;-1.932;2023-08-31T04:13:14;100433.33;;;14.28;100.00
49645;BME280;36494;50.730;-1.932;2023-08-31T04:15:39;100432.98;;;14.28;100.00
49645;BME280;36494;50.730;-1.932;2023-08-31T04:18:05;100434.94;;;14.27;100.00
49645;BME280;36494;50.730;-1.932;2023-08-31T04:20:32;100439.78;;;14.27;100.00
49645;BME280;36494;50.730;-1.932;2023-08-31T04:22:55;100437.36;;;14.27;100.00
49645;BME280;36494;50.730;-1.932;2023-08-31T04:25:21;100436.81;;;14.27;100.00
49645;BME280;36494;50.730;-1.932;2023-08-31T04:27:46;100435.37;;;14.26;100.00
49645;BME280;36494;50.730;-1.932;2023-08-31T04:30:12;100438.22;;;14.26;100.00
49645;BME280;36494;50.730;-1.932;2023-08-31T04:32:37;100442.13;;;14.26;100.00
49645;BME280;36494;50.730;-1.932;2023-08-31T04:35:03;100440.30;;;14.25;100.00
49645;BME280;36494;50.730;-1.932;2023-08-31T04:37:27;100444.43;;;14.25;100.00
49645;BME280;36494;50.730;-1.932;2023-08-31T04:39:52;100446.36;;;14.24;100.00
49645;BME280;36494;50.730;-1.932;2023-08-31T04:42:18;100450.09;;;14.23;100.00
49645;BME280;36494;50.730;-1.932;2023-08-31T04:44:44;100452.72;;;14.23;100.00
49645;BME280;36494;50.730;-1.932;2023-08-31T04:47:09;100455.92;;;14.22;100.00
49645;BME280;36494;50.730;-1.932;2023-08-31T04:49:34;100456.04;;;14.21;100.00
49645;BME280;36494;50.730;-1.932;2023-08-31T04:52:00;100457.94;;;14.21;100.00
49645;BME280;36494;50.730;-1.932;2023-08-31T04:54:25;100458.26;;;14.20;100.00
49645;BME280;36494;50.730;-1.932;2023-08-31T04:56:50;100455.06;;;14.19;100.00
49645;BME280;36494;50.730;-1.932;2023-08-31T04:59:15;100452.16;;;14.17;100.00
49645;BME280;36494;50.730;-1.932;2023-08-31T05:01:41;100450.96;;;14.16;100.00
49645;BME280;36494;50.730;-1.932;2023-08-31T05:04:06;100451.81;;;14.15;100.00
49645;BME280;36494;50.730;-1.932;2023-08-31T05:06:32;100454.22;;;14.13;100.00
49645;BME280;36494;50.730;-1.932;2023-08-31T05:08:57;100454.15;;;14.12;100.00
49645;BME280;36494;50.730;-1.932;2023-08-31T05:11:22;100449.69;;;14.11;100.00
49645;BME280;36494;50.730;-1.932;2023-08-31T05:13:47;100452.34;;;14.10;100.00
49645;BME280;36494;50.730;-1.932;2023-08-31T05:16:13;100450.21;;;14.08;100.00
49645;BME280;36494;50.730;-1.932;2023-08-31T05:18:39;100448.81;;;14.07;100.00
49645;BME280;36494;50.730;-1.932;2023-08-31T05:21:04;100446.94;;;14.05;100.00
49645;BME280;36494;50.730;-1.932;2023-08-31T05:23:29;100447.36;;;14.04;100.00
49645;BME280;36494;50.730;-1.932;2023-08-31T05:25:54;100446.72;;;14.03;100.00
49645;BME280;36494;50.730;-1.932;2023-08-31T05:28:20;100445.38;;;14.01;100.00
49645;BME280;36494;50.730;-1.932;2023-08-31T05:30:48;100444.30;;;14.00;100.00
49645;BME280;36494;50.730;-1.932;2023-08-31T05:33:10;100436.25;;;14.00;100.00
49645;BME280;36494;50.730;-1.932;2023-08-31T05:35:36;100438.36;;;13.98;100.00
49645;BME280;36494;50.730;-1.932;2023-08-31T05:38:01;100441.78;;;13.97;100.00
49645;BME280;36494;50.730;-1.932;2023-08-31T05:40:26;100442.27;;;13.97;100.00
49645;BME280;36494;50.730;-1.932;2023-08-31T05:42:52;100440.68;;;13.97;100.00
49645;BME280;36494;50.730;-1.932;2023-08-31T05:45:17;100437.41;;;13.97;100.00
49645;BME280;36494;50.730;-1.932;2023-08-31T05:47:42;100438.70;;;13.97;100.00
49645;BME280;36494;50.730;-1.932;2023-08-31T05:50:08;100440.02;;;13.96;100.00
49645;BME280;36494;50.730;-1.932;2023-08-31T05:52:33;100441.07;;;13.96;100.00
49645;BME280;36494;50.730;-1.932;2023-08-31T05:54:59;100446.26;;;13.96;100.00
49645;BME280;36494;50.730;-1.932;2023-08-31T05:57:26;100445.92;;;13.96;100.00
49645;BME280;36494;50.730;-1.932;2023-08-31T05:59:49;100446.71;;;13.96;100.00
49645;BME280;36494;50.730;-1.932;2023-08-31T06:02:15;100443.74;;;13.96;100.00
49645;BME280;36494;50.730;-1.932;2023-08-31T06:04:40;100445.02;;;13.97;100.00
49645;BME280;36494;50.730;-1.932;2023-08-31T06:07:06;100445.33;;;13.96;100.00
49645;BME280;36494;50.730;-1.932;2023-08-31T06:09:31;100449.47;;;13.96;100.00
49645;BME280;36494;50.730;-1.932;2023-08-31T06:11:56;100448.97;;;13.97;100.00
49645;BME280;36494;50.730;-1.932;2023-08-31T06:14:22;100447.16;;;13.97;100.00
49645;BME280;36494;50.730;-1.932;2023-08-31T06:16:47;100448.29;;;13.99;100.00
49645;BME280;36494;50.730;-1.932;2023-08-31T06:19:12;100446.90;;;13.99;100.00
49645;BME280;36494;50.730;-1.932;2023-08-31T06:21:38;100447.15;;;14.00;100.00
49645;BME280;36494;50.730;-1.932;2023-08-31T06:24:03;100451.03;;;14.02;100.00
49645;BME280;36494;50.730;-1.932;2023-08-31T06:26:28;100455.73;;;14.04;100.00
49645;BME280;36494;50.730;-1.932;2023-08-31T06:28:54;100461.93;;;14.05;100.00
49645;BME280;36494;50.730;-1.932;2023-08-31T06:31:19;100465.67;;;14.06;100.00
49645;BME280;36494;50.730;-1.932;2023-08-31T06:33:45;100467.02;;;14.07;100.00
49645;BME280;36494;50.730;-1.932;2023-08-31T06:36:10;100470.38;;;14.06;100.00
49645;BME280;36494;50.730;-1.932;2023-08-31T06:38:35;100469.72;;;14.04;100.00
49645;BME280;36494;50.730;-1.932;2023-08-31T06:41:02;100469.27;;;13.98;100.00
49645;BME280;36494;50.730;-1.932;2023-08-31T06:43:26;100471.81;;;13.94;100.00
49645;BME280;36494;50.730;-1.932;2023-08-31T06:45:51;100471.67;;;13.89;100.00
49645;BME280;36494;50.730;-1.932;2023-08-31T06:48:16;100467.22;;;13.87;100.00
49645;BME280;36494;50.730;-1.932;2023-08-31T06:50:42;100468.93;;;13.80;100.00
49645;BME280;36494;50.730;-1.932;2023-08-31T06:53:07;100474.07;;;13.80;100.00
49645;BME280;36494;50.730;-1.932;2023-08-31T06:55:32;100477.83;;;13.81;100.00
49645;BME280;36494;50.730;-1.932;2023-08-31T06:57:58;100476.35;;;13.86;100.00
49645;BME280;36494;50.730;-1.932;2023-08-31T07:00:23;100474.47;;;13.92;100.00
49645;BME280;36494;50.730;-1.932;2023-08-31T07:02:49;100470.68;;;13.95;100.00
49645;BME280;36494;50.730;-1.932;2023-08-31T07:05:14;100470.38;;;13.87;100.00
49645;BME280;36494;50.730;-1.932;2023-08-31T07:07:40;100469.64;;;13.84;100.00
49645;BME280;36494;50.730;-1.932;2023-08-31T07:10:06;100470.15;;;13.78;100.00
49645;BME280;36494;50.730;-1.932;2023-08-31T07:12:30;100463.43;;;13.65;100.00
49645;BME280;36494;50.730;-1.932;2023-08-31T07:14:55;100463.25;;;13.53;100.00
49645;BME280;36494;50.730;-1.932;2023-08-31T07:17:21;100467.39;;;13.44;100.00
49645;BME280;36494;50.730;-1.932;2023-08-31T07:19:46;100467.73;;;13.44;100.00
49645;BME280;36494;50.730;-1.932;2023-08-31T07:22:11;100462.45;;;13.42;100.00
49645;BME280;36494;50.730;-1.932;2023-08-31T07:24:37;100457.20;;;13.41;100.00
49645;BME280;36494;50.730;-1.932;2023-08-31T07:27:03;100457.06;;;13.36;100.00
49645;BME280;36494;50.730;-1.932;2023-08-31T07:29:27;100457.07;;;13.29;100.00
49645;BME280;36494;50.730;-1.932;2023-08-31T07:31:53;100455.84;;;13.31;100.00
49645;BME280;36494;50.730;-1.932;2023-08-31T07:34:18;100456.98;;;13.21;100.00
49645;BME280;36494;50.730;-1.932;2023-08-31T07:36:43;100457.06;;;13.12;100.00
49645;BME280;36494;50.730;-1.932;2023-08-31T07:39:08;100455.72;;;13.12;100.00
49645;BME280;36494;50.730;-1.932;2023-08-31T07:41:34;100458.20;;;13.15;100.00
49645;BME280;36494;50.730;-1.932;2023-08-31T07:44:00;100452.77;;;13.21;100.00
49645;BME280;36494;50.730;-1.932;2023-08-31T07:46:26;100450.82;;;13.20;100.00
49645;BME280;36494;50.730;-1.932;2023-08-31T07:48:51;100446.79;;;13.15;100.00
49645;BME280;36494;50.730;-1.932;2023-08-31T07:51:16;100442.44;;;13.09;100.00
49645;BME280;36494;50.730;-1.932;2023-08-31T07:53:42;100441.70;;;12.79;100.00
49645;BME280;36494;50.730;-1.932;2023-08-31T07:56:07;100441.21;;;12.67;100.00
49645;BME280;36494;50.730;-1.932;2023-08-31T07:58:33;100438.58;;;12.76;100.00
49645;BME280;36494;50.730;-1.932;2023-08-31T08:00:58;100437.53;;;12.77;100.00
49645;BME280;36494;50.730;-1.932;2023-08-31T08:03:23;100436.72;;;12.82;100.00
49645;BME280;36494;50.730;-1.932;2023-08-31T08:05:49;100438.41;;;12.65;100.00
49645;BME280;36494;50.730;-1.932;2023-08-31T08:08:14;100439.25;;;12.53;100.00
49645;BME280;36494;50.730;-1.932;2023-08-31T08:10:40;100438.57;;;12.59;100.00
49645;BME280;36494;50.730;-1.932;2023-08-31T08:13:05;100439.34;;;12.59;100.00
49645;BME280;36494;50.730;-1.932;2023-08-31T08:15:31;100440.96;;;12.71;100.00
49645;BME280;36494;50.730;-1.932;2023-08-31T08:17:56;100444.86;;;12.72;100.00
49645;BME280;36494;50.730;-1.932;2023-08-31T08:20:21;100446.75;;;12.70;100.00
49645;BME280;36494;50.730;-1.932;2023-08-31T08:22:46;100446.33;;;12.63;100.00
49645;BME280;36494;50.730;-1.932;2023-08-31T08:25:11;100445.65;;;12.64;100.00
49645;BME280;36494;50.730;-1.932;2023-08-31T08:27:37;100446.94;;;12.62;100.00
49645;BME280;36494;50.730;-1.932;2023-08-31T08:30:03;100451.56;;;12.71;100.00
49645;BME280;36494;50.730;-1.932;2023-08-31T08:32:27;100456.40;;;12.74;100.00
49645;BME280;36494;50.730;-1.932;2023-08-31T08:34:53;100460.91;;;12.81;100.00
49645;BME280;36494;50.730;-1.932;2023-08-31T08:37:19;100465.27;;;12.86;100.00
49645;BME280;36494;50.730;-1.932;2023-08-31T08:39:43;100460.24;;;12.93;100.00
49645;BME280;36494;50.730;-1.932;2023-08-31T08:42:10;100447.03;;;12.98;100.00
49645;BME280;36494;50.730;-1.932;2023-08-31T08:44:35;100446.01;;;13.02;100.00
49645;BME280;36494;50.730;-1.932;2023-08-31T08:47:00;100436.97;;;13.01;100.00
49645;BME280;36494;50.730;-1.932;2023-08-31T08:49:26;100428.30;;;12.96;100.00
49645;BME280;36494;50.730;-1.932;2023-08-31T08:51:50;100422.07;;;12.86;100.00
49645;BME280;36494;50.730;-1.932;2023-08-31T08:54:15;100421.90;;;12.78;100.00
49645;BME280;36494;50.730;-1.932;2023-08-31T08:56:40;100421.20;;;12.68;100.00
49645;BME280;36494;50.730;-1.932;2023-08-31T08:59:06;100417.36;;;12.64;100.00
49645;BME280;36494;50.730;-1.932;2023-08-31T09:01:32;100416.07;;;12.62;100.00
49645;BME280;36494;50.730;-1.932;2023-08-31T09:03:56;100416.96;;;12.61;100.00
49645;BME280;36494;50.730;-1.932;2023-08-31T09:06:22;100420.90;;;12.65;100.00
49645;BME280;36494;50.730;-1.932;2023-08-31T09:08:55;100425.47;;;12.67;100.00
49645;BME280;36494;50.730;-1.932;2023-08-31T09:11:20;100422.52;;;12.66;100.00
49645;BME280;36494;50.730;-1.932;2023-08-31T09:13:38;100418.92;;;12.58;100.00
49645;BME280;36494;50.730;-1.932;2023-08-31T09:16:03;100417.42;;;12.65;100.00
49645;BME280;36494;50.730;-1.932;2023-08-31T09:18:29;100415.83;;;12.71;100.00
49645;BME280;36494;50.730;-1.932;2023-08-31T09:20:55;100417.88;;;12.66;100.00
49645;BME280;36494;50.730;-1.932;2023-08-31T09:23:19;100415.27;;;12.72;100.00
49645;BME280;36494;50.730;-1.932;2023-08-31T09:25:45;100401.62;;;12.68;100.00
49645;BME280;36494;50.730;-1.932;2023-08-31T09:28:10;100393.98;;;12.65;100.00
49645;BME280;36494;50.730;-1.932;2023-08-31T09:30:35;100379.26;;;12.61;100.00
49645;BME280;36494;50.730;-1.932;2023-08-31T09:33:00;100379.21;;;12.68;100.00
49645;BME280;36494;50.730;-1.932;2023-08-31T09:35:25;100387.51;;;12.67;100.00
49645;BME280;36494;50.730;-1.932;2023-08-31T09:37:55;100380.87;;;12.66;100.00
49645;BME280;36494;50.730;-1.932;2023-08-31T09:40:16;100387.75;;;12.64;100.00
49645;BME280;36494;50.730;-1.932;2023-08-31T09:42:41;100393.38;;;12.74;100.00
49645;BME280;36494;50.730;-1.932;2023-08-31T09:45:08;100393.68;;;12.77;100.00
49645;BME280;36494;50.730;-1.932;2023-08-31T09:47:33;100392.99;;;12.80;100.00
49645;BME280;36494;50.730;-1.932;2023-08-31T09:49:58;100388.54;;;12.81;100.00
49645;BME280;36494;50.730;-1.932;2023-08-31T09:52:24;100389.49;;;12.84;100.00
49645;BME280;36494;50.730;-1.932;2023-08-31T09:54:50;100382.63;;;12.78;100.00
49645;BME280;36494;50.730;-1.932;2023-08-31T09:57:15;100375.04;;;12.79;100.00
49645;BME280;36494;50.730;-1.932;2023-08-31T09:59:39;100364.19;;;12.82;100.00
49645;BME280;36494;50.730;-1.932;2023-08-31T10:02:05;100357.03;;;12.79;100.00
49645;BME280;36494;50.730;-1.932;2023-08-31T10:04:31;100354.71;;;12.84;100.00
49645;BME280;36494;50.730;-1.932;2023-08-31T10:06:55;100357.89;;;12.96;100.00
49645;BME280;36494;50.730;-1.932;2023-08-31T10:09:21;100363.16;;;13.06;100.00
49645;BME280;36494;50.730;-1.932;2023-08-31T10:11:46;100361.02;;;13.10;100.00
49645;BME280;36494;50.730;-1.932;2023-08-31T10:14:12;100363.05;;;13.12;100.00
49645;BME280;36494;50.730;-1.932;2023-08-31T10:16:39;100366.72;;;13.15;100.00
49645;BME280;36494;50.730;-1.932;2023-08-31T10:19:02;100369.90;;;13.21;100.00
49645;BME280;36494;50.730;-1.932;2023-08-31T10:21:27;100369.48;;;13.11;100.00
49645;BME280;36494;50.730;-1.932;2023-08-31T10:23:53;100362.23;;;13.10;100.00
49645;BME280;36494;50.730;-1.932;2023-08-31T10:26:24;100361.20;;;13.17;100.00
49645;BME280;36494;50.730;-1.932;2023-08-31T10:28:44;100360.16;;;13.13;100.00
49645;BME280;36494;50.730;-1.932;2023-08-31T10:31:10;100359.81;;;13.23;100.00
49645;BME280;36494;50.730;-1.932;2023-08-31T10:33:38;100357.17;;;13.22;100.00
49645;BME280;36494;50.730;-1.932;2023-08-31T10:36:00;100355.07;;;13.25;100.00
49645;BME280;36494;50.730;-1.932;2023-08-31T10:38:27;100353.88;;;13.32;100.00
49645;BME280;36494;50.730;-1.932;2023-08-31T10:41:00;100352.47;;;13.31;100.00
49645;BME280;36494;50.730;-1.932;2023-08-31T10:43:16;100351.89;;;13.35;100.00
49645;BME280;36494;50.730;-1.932;2023-08-31T10:45:43;100348.98;;;13.36;100.00
49645;BME280;36494;50.730;-1.932;2023-08-31T10:48:07;100344.15;;;13.45;100.00
49645;BME280;36494;50.730;-1.932;2023-08-31T10:50:40;100341.11;;;13.47;100.00
49645;BME280;36494;50.730;-1.932;2023-08-31T10:55:23;100341.30;;;13.54;100.00
49645;BME280;36494;50.730;-1.932;2023-08-31T10:57:48;100336.60;;;13.52;100.00
49645;BME280;36494;50.730;-1.932;2023-08-31T11:00:13;100333.94;;;13.52;100.00
49645;BME280;36494;50.730;-1.932;2023-08-31T11:02:41;100335.15;;;13.59;100.00
49645;BME280;36494;50.730;-1.932;2023-08-31T11:05:08;100325.26;;;13.52;100.00
49645;BME280;36494;50.730;-1.932;2023-08-31T11:07:28;100318.24;;;13.60;100.00
49645;BME280;36494;50.730;-1.932;2023-08-31T11:12:22;100314.23;;;13.73;100.00
49645;BME280;36494;50.730;-1.932;2023-08-31T11:14:48;100313.51;;;13.65;100.00
49645;BME280;36494;50.730;-1.932;2023-08-31T11:17:10;100308.70;;;13.69;100.00
49645;BME280;36494;50.730;-1.932;2023-08-31T11:19:36;100312.19;;;13.82;100.00
49645;BME280;36494;50.730;-1.932;2023-08-31T11:22:03;100318.64;;;13.80;100.00
49645;BME280;36494;50.730;-1.932;2023-08-31T11:24:27;100315.30;;;13.80;100.00
49645;BME280;36494;50.730;-1.932;2023-08-31T11:26:52;100312.50;;;13.91;100.00
49645;BME280;36494;50.730;-1.932;2023-08-31T11:29:17;100305.31;;;13.85;100.00
49645;BME280;36494;50.730;-1.932;2023-08-31T11:31:42;100296.92;;;13.87;100.00
49645;BME280;36494;50.730;-1.932;2023-08-31T11:34:13;100292.29;;;13.98;100.00
49645;BME280;36494;50.730;-1.932;2023-08-31T11:36:33;100290.58;;;14.02;100.00
49645;BME280;36494;50.730;-1.932;2023-08-31T11:38:58;100282.02;;;14.09;100.00
49645;BME280;36494;50.730;-1.932;2023-08-31T11:41:24;100282.36;;;14.14;100.00
49645;BME280;36494;50.730;-1.932;2023-08-31T11:43:50;100276.86;;;14.12;100.00
49645;BME280;36494;50.730;-1.932;2023-08-31T11:46:16;100275.18;;;14.14;100.00
49645;BME280;36494;50.730;-1.932;2023-08-31T11:48:40;100280.09;;;14.17;100.00
49645;BME280;36494;50.730;-1.932;2023-08-31T11:51:05;100280.09;;;14.20;100.00
49645;BME280;36494;50.730;-1.932;2023-08-31T11:53:30;100282.08;;;14.22;100.00
49645;BME280;36494;50.730;-1.932;2023-08-31T11:55:56;100283.49;;;14.26;100.00
49645;BME280;36494;50.730;-1.932;2023-08-31T11:58:21;100289.97;;;14.23;100.00
49645;BME280;36494;50.730;-1.932;2023-08-31T12:00:55;100287.87;;;14.24;100.00
49645;BME280;36494;50.730;-1.932;2023-08-31T12:03:12;100293.54;;;14.26;100.00
49645;BME280;36494;50.730;-1.932;2023-08-31T12:05:46;100298.96;;;14.28;100.00
49645;BME280;36494;50.730;-1.932;2023-08-31T12:08:03;100292.98;;;14.29;100.00
49645;BME280;36494;50.730;-1.932;2023-08-31T12:10:28;100299.58;;;14.37;100.00
49645;BME280;36494;50.730;-1.932;2023-08-31T12:12:53;100304.52;;;14.40;100.00
49645;BME280;36494;50.730;-1.932;2023-08-31T12:15:18;100304.26;;;14.38;100.00
49645;BME280;36494;50.730;-1.932;2023-08-31T12:17:47;100303.69;;;14.43;100.00
49645;BME280;36494;50.730;-1.932;2023-08-31T12:20:09;100302.04;;;14.45;100.00
49645;BME280;36494;50.730;-1.932;2023-08-31T12:22:34;100299.12;;;14.39;100.00
49645;BME280;36494;50.730;-1.932;2023-08-31T12:24:59;100296.38;;;14.46;100.00